sensor_id;sensor_type;location;lat;lon;timestamp;pressure;altitude;pressure_sealevel;temperature;humidity
40612;BME280;26317;44.894;20.286;2023-02-28T00:02:22;101690.69;;;3.14;93.60
40612;BME280;26317;44.894;20.286;2023-02-28T00:05:16;101702.53;;;3.11;94.37
40612;BME280;26317;44.894;20.286;2023-02-28T00:07:50;101691.78;;;2.92;94.28
40612;BME280;26317;44.894;20.286;2023-02-28T00:10:28;101695.44;;;2.91;95.31
40612;BME280;26317;44.894;20.286;2023-02-28T00:13:06;101683.78;;;2.64;97.36
40612;BME280;26317;44.894;20.286;2023-02-28T00:15:49;101692.25;;;2.74;96.97
40612;BME280;26317;44.894;20.286;2023-02-28T00:18:31;101694.63;;;2.69;97.63
40612;BME280;26317;44.894;20.286;2023-02-28T00:21:16;101657.13;;;2.44;98.30
40612;BME280;26317;44.894;20.286;2023-02-28T00:23:56;101701.44;;;2.78;98.29
40612;BME280;26317;44.894;20.286;2023-02-28T00:26:33;101703.25;;;2.77;97.70
40612;BME280;26317;44.894;20.286;2023-02-28T00:29:19;101711.66;;;2.81;97.87
40612;BME280;26317;44.894;20.286;2023-02-28T00:31:59;101709.63;;;2.83;97.22
40612;BME280;26317;44.894;20.286;2023-02-28T00:34:35;101713.13;;;2.84;98.02
40612;BME280;26317;44.894;20.286;2023-02-28T00:37:09;101705.31;;;2.75;98.25
40612;BME280;26317;44.894;20.286;2023-02-28T00:39:45;101695.75;;;2.60;98.71
40612;BME280;26317;44.894;20.286;2023-02-28T00:42:25;101706.22;;;2.68;98.80
40612;BME280;26317;44.894;20.286;2023-02-28T00:45:23;101706.56;;;2.58;98.83
40612;BME280;26317;44.894;20.286;2023-02-28T00:47:59;101692.63;;;2.50;99.41
40612;BME280;26317;44.894;20.286;2023-02-28T00:50:43;101698.75;;;2.50;99.58
40612;BME280;26317;44.894;20.286;2023-02-28T00:53:29;101677.44;;;2.37;99.65
40612;BME280;26317;44.894;20.286;2023-02-28T00:56:07;101698.22;;;2.61;99.60
40612;BME280;26317;44.894;20.286;2023-02-28T00:58:48;101694.47;;;2.49;100.00
40612;BME280;26317;44.894;20.286;2023-02-28T01:01:43;101693.13;;;2.39;100.00
40612;BME280;26317;44.894;20.286;2023-02-28T01:04:18;101690.66;;;2.37;100.00
40612;BME280;26317;44.894;20.286;2023-02-28T01:07:02;101693.13;;;2.39;100.00
40612;BME280;26317;44.894;20.286;2023-02-28T01:09:36;101696.47;;;2.47;100.00
40612;BME280;26317;44.894;20.286;2023-02-28T01:12:25;101687.63;;;2.40;100.00
40612;BME280;26317;44.894;20.286;2023-02-28T01:15:11;101701.75;;;2.47;100.00
40612;BME280;26317;44.894;20.286;2023-02-28T01:17:56;101701.31;;;2.44;100.00
40612;BME280;26317;44.894;20.286;2023-02-28T01:20:36;101691.81;;;2.49;100.00
40612;BME280;26317;44.894;20.286;2023-02-28T01:23:17;101697.53;;;2.53;100.00
40612;BME280;26317;44.894;20.286;2023-02-28T01:26:09;101700.44;;;2.58;100.00
40612;BME280;26317;44.894;20.286;2023-02-28T01:28:48;101688.06;;;2.44;100.00
40612;BME280;26317;44.894;20.286;2023-02-28T01:31:22;101707.81;;;2.62;100.00
40612;BME280;26317;44.894;20.286;2023-02-28T01:34:14;101711.22;;;2.56;100.00
40612;BME280;26317;44.894;20.286;2023-02-28T01:37:02;101706.56;;;2.58;100.00
40612;BME280;26317;44.894;20.286;2023-02-28T01:39:36;101676.31;;;2.46;100.00
40612;BME280;26317;44.894;20.286;2023-02-28T01:42:22;101679.19;;;2.51;100.00
40612;BME280;26317;44.894;20.286;2023-02-28T01:45:20;101697.47;;;2.67;100.00
40612;BME280;26317;44.894;20.286;2023-02-28T01:48:03;101702.19;;;2.72;100.00
40612;BME280;26317;44.894;20.286;2023-02-28T01:50:53;101712.22;;;2.76;99.81
40612;BME280;26317;44.894;20.286;2023-02-28T01:53:33;101707.16;;;2.82;99.64
40612;BME280;26317;44.894;20.286;2023-02-28T01:56:08;101715.56;;;2.85;99.65
40612;BME280;26317;44.894;20.286;2023-02-28T01:58:52;101715.13;;;2.82;100.00
40612;BME280;26317;44.894;20.286;2023-02-28T02:01:30;101733.09;;;2.86;99.84
40612;BME280;26317;44.894;20.286;2023-02-28T02:04:06;101721.50;;;2.87;99.41
40612;BME280;26317;44.894;20.286;2023-02-28T02:06:49;101718.16;;;2.78;99.45
40612;BME280;26317;44.894;20.286;2023-02-28T02:09:32;101733.38;;;2.98;98.85
40612;BME280;26317;44.894;20.286;2023-02-28T02:12:21;101735.00;;;2.92;98.32
40612;BME280;26317;44.894;20.286;2023-02-28T02:15:06;101740.16;;;3.00;98.25
40612;BME280;26317;44.894;20.286;2023-02-28T02:17:47;101738.69;;;2.98;98.39
40612;BME280;26317;44.894;20.286;2023-02-28T02:20:42;101735.59;;;2.94;98.41
40612;BME280;26317;44.894;20.286;2023-02-28T02:27:13;101733.91;;;2.87;98.87
40612;BME280;26317;44.894;20.286;2023-02-28T02:33:26;101732.53;;;2.91;99.15
40612;BME280;26317;44.894;20.286;2023-02-28T02:36:27;101736.97;;;2.84;98.92
40612;BME280;26317;44.894;20.286;2023-02-28T02:39:23;101732.28;;;2.86;98.97
40612;BME280;26317;44.894;20.286;2023-02-28T02:42:14;101733.03;;;2.80;99.08
40612;BME280;26317;44.894;20.286;2023-02-28T02:45:01;101735.75;;;2.86;99.06
40612;BME280;26317;44.894;20.286;2023-02-28T02:47:38;101731.28;;;2.87;98.76
40612;BME280;26317;44.894;20.286;2023-02-28T02:50:33;101724.47;;;2.77;99.34
40612;BME280;26317;44.894;20.286;2023-02-28T02:53:21;101726.16;;;2.85;99.60
40612;BME280;26317;44.894;20.286;2023-02-28T02:56:25;101723.94;;;2.89;99.33
40612;BME280;26317;44.894;20.286;2023-02-28T02:59:10;101720.28;;;2.90;99.05
40612;BME280;26317;44.894;20.286;2023-02-28T03:01:53;101718.03;;;2.87;99.25
40612;BME280;26317;44.894;20.286;2023-02-28T03:04:36;101717.03;;;2.88;99.01
40612;BME280;26317;44.894;20.286;2023-02-28T03:07:15;101720.66;;;2.87;99.40
40612;BME280;26317;44.894;20.286;2023-02-28T03:09:58;101725.97;;;2.87;99.40
40612;BME280;26317;44.894;20.286;2023-02-28T03:12:44;101727.22;;;2.91;99.48
40612;BME280;26317;44.894;20.286;2023-02-28T03:15:28;101732.28;;;2.86;98.83
40612;BME280;26317;44.894;20.286;2023-02-28T03:18:14;101732.44;;;2.84;99.42
40612;BME280;26317;44.894;20.286;2023-02-28T03:21:06;101731.19;;;2.80;99.12
40612;BME280;26317;44.894;20.286;2023-02-28T03:23:52;101734.66;;;2.81;99.12
40612;BME280;26317;44.894;20.286;2023-02-28T03:26:36;101728.75;;;2.78;99.01
40612;BME280;26317;44.894;20.286;2023-02-28T03:29:20;101737.13;;;2.82;99.34
40612;BME280;26317;44.894;20.286;2023-02-28T03:32:05;101730.59;;;2.78;99.92
40612;BME280;26317;44.894;20.286;2023-02-28T03:34:49;101743.03;;;2.84;99.50
40612;BME280;26317;44.894;20.286;2023-02-28T03:37:32;101736.13;;;2.83;98.99
40612;BME280;26317;44.894;20.286;2023-02-28T03:40:31;101735.09;;;2.84;99.27
40612;BME280;26317;44.894;20.286;2023-02-28T03:43:26;101740.22;;;2.86;98.62
40612;BME280;26317;44.894;20.286;2023-02-28T03:46:14;101738.97;;;2.82;98.66
40612;BME280;26317;44.894;20.286;2023-02-28T03:49:00;101739.81;;;2.89;98.70
40612;BME280;26317;44.894;20.286;2023-02-28T03:51:46;101734.50;;;2.82;98.45
40612;BME280;26317;44.894;20.286;2023-02-28T03:54:23;101737.13;;;2.82;99.17
40612;BME280;26317;44.894;20.286;2023-02-28T03:57:06;101700.09;;;2.67;99.30
40612;BME280;26317;44.894;20.286;2023-02-28T03:59:59;101724.47;;;2.77;99.90
40612;BME280;26317;44.894;20.286;2023-02-28T04:02:42;101741.00;;;2.80;99.54
40612;BME280;26317;44.894;20.286;2023-02-28T04:05:27;101732.34;;;2.71;99.56
40612;BME280;26317;44.894;20.286;2023-02-28T04:08:19;101736.06;;;2.76;99.76
40612;BME280;26317;44.894;20.286;2023-02-28T04:10:58;101740.09;;;2.72;98.76
40612;BME280;26317;44.894;20.286;2023-02-28T04:13:55;101719.09;;;2.50;99.34
40612;BME280;26317;44.894;20.286;2023-02-28T04:16:40;101735.88;;;2.57;99.77
40612;BME280;26317;44.894;20.286;2023-02-28T04:19:17;101757.94;;;2.64;100.00
40612;BME280;26317;44.894;20.286;2023-02-28T04:21:53;101753.03;;;2.61;100.00
40612;BME280;26317;44.894;20.286;2023-02-28T04:24:27;101742.00;;;2.57;100.00
40612;BME280;26317;44.894;20.286;2023-02-28T04:27:13;101763.31;;;2.70;99.64
40612;BME280;26317;44.894;20.286;2023-02-28T04:29:51;101758.38;;;2.67;99.83
40612;BME280;26317;44.894;20.286;2023-02-28T04:32:39;101756.41;;;2.76;100.00
40612;BME280;26317;44.894;20.286;2023-02-28T04:35:18;101766.28;;;2.82;100.00
40612;BME280;26317;44.894;20.286;2023-02-28T04:37:56;101763.44;;;2.84;100.00
40612;BME280;26317;44.894;20.286;2023-02-28T04:40:31;101765.06;;;2.85;100.00
40612;BME280;26317;44.894;20.286;2023-02-28T04:43:15;101763.88;;;2.87;99.97
40612;BME280;26317;44.894;20.286;2023-02-28T04:45:49;101763.09;;;2.93;99.82
40612;BME280;26317;44.894;20.286;2023-02-28T04:48:41;101767.16;;;2.89;99.50
40612;BME280;26317;44.894;20.286;2023-02-28T04:51:17;101772.00;;;2.86;99.76
40612;BME280;26317;44.894;20.286;2023-02-28T04:54:04;101766.31;;;2.89;98.91
40612;BME280;26317;44.894;20.286;2023-02-28T04:56:39;101766.31;;;2.89;99.73
40612;BME280;26317;44.894;20.286;2023-02-28T04:59:16;101761.41;;;2.86;99.23
40612;BME280;26317;44.894;20.286;2023-02-28T05:01:51;101758.91;;;2.77;99.81
40612;BME280;26317;44.894;20.286;2023-02-28T05:04:51;101759.41;;;2.66;100.00
40612;BME280;26317;44.894;20.286;2023-02-28T05:07:29;101761.66;;;2.69;100.00
40612;BME280;26317;44.894;20.286;2023-02-28T05:10:19;101763.44;;;2.62;100.00
40612;BME280;26317;44.894;20.286;2023-02-28T05:12:55;101761.78;;;2.61;100.00
40612;BME280;26317;44.894;20.286;2023-02-28T05:15:38;101764.31;;;2.69;100.00
40612;BME280;26317;44.894;20.286;2023-02-28T05:18:11;101766.91;;;2.63;100.00
40612;BME280;26317;44.894;20.286;2023-02-28T05:21:02;101760.28;;;2.52;100.00
40612;BME280;26317;44.894;20.286;2023-02-28T05:23:37;101773.25;;;2.47;100.00
40612;BME280;26317;44.894;20.286;2023-02-28T05:26:14;101767.06;;;2.40;100.00
40612;BME280;26317;44.894;20.286;2023-02-28T05:28:57;101774.75;;;2.35;100.00
40612;BME280;26317;44.894;20.286;2023-02-28T05:31:37;101787.41;;;2.40;100.00
40612;BME280;26317;44.894;20.286;2023-02-28T05:34:22;101780.91;;;2.42;100.00
40612;BME280;26317;44.894;20.286;2023-02-28T05:37:18;101787.41;;;2.40;100.00
40612;BME280;26317;44.894;20.286;2023-02-28T05:39:58;101786.97;;;2.36;100.00
40612;BME280;26317;44.894;20.286;2023-02-28T05:42:36;101792.88;;;2.38;100.00
40612;BME280;26317;44.894;20.286;2023-02-28T05:45:18;101788.69;;;2.44;100.00
40612;BME280;26317;44.894;20.286;2023-02-28T05:47:54;101787.34;;;2.33;100.00
40612;BME280;26317;44.894;20.286;2023-02-28T05:50:29;101802.41;;;2.33;100.00
40612;BME280;26317;44.894;20.286;2023-02-28T05:53:10;101774.25;;;2.10;100.00
40612;BME280;26317;44.894;20.286;2023-02-28T05:55:48;101794.75;;;2.23;100.00
40612;BME280;26317;44.894;20.286;2023-02-28T05:58:33;101788.97;;;2.34;100.00
40612;BME280;26317;44.894;20.286;2023-02-28T06:01:23;101789.34;;;2.31;100.00
40612;BME280;26317;44.894;20.286;2023-02-28T06:04:11;101794.47;;;2.33;100.00
40612;BME280;26317;44.894;20.286;2023-02-28T06:07:10;101744.50;;;1.94;100.00
40612;BME280;26317;44.894;20.286;2023-02-28T06:09:52;101810.53;;;2.31;100.00
40612;BME280;26317;44.894;20.286;2023-02-28T06:12:27;101792.25;;;2.36;100.00
40612;BME280;26317;44.894;20.286;2023-02-28T06:15:14;101801.47;;;2.40;100.00
40612;BME280;26317;44.894;20.286;2023-02-28T06:17:54;101799.44;;;2.42;100.00
40612;BME280;26317;44.894;20.286;2023-02-28T06:20:27;101762.66;;;2.11;100.00
40612;BME280;26317;44.894;20.286;2023-02-28T06:23:06;101802.47;;;2.39;100.00
40612;BME280;26317;44.894;20.286;2023-02-28T06:25:47;101800.94;;;2.30;100.00
40612;BME280;26317;44.894;20.286;2023-02-28T06:28:27;101763.47;;;2.12;100.00
40612;BME280;26317;44.894;20.286;2023-02-28T06:31:07;101809.41;;;2.40;100.00
40612;BME280;26317;44.894;20.286;2023-02-28T06:33:49;101809.97;;;2.50;100.00
40612;BME280;26317;44.894;20.286;2023-02-28T06:36:25;101811.97;;;2.48;100.00
40612;BME280;26317;44.894;20.286;2023-02-28T06:38:58;101813.88;;;2.54;100.00
40612;BME280;26317;44.894;20.286;2023-02-28T06:41:43;101817.59;;;2.60;100.00
40612;BME280;26317;44.894;20.286;2023-02-28T06:44:25;101823.59;;;2.68;100.00
40612;BME280;26317;44.894;20.286;2023-02-28T06:47:11;101825.25;;;2.69;100.00
40612;BME280;26317;44.894;20.286;2023-02-28T06:49:44;101824.59;;;2.67;100.00
40612;BME280;26317;44.894;20.286;2023-02-28T06:52:27;101829.41;;;2.78;100.00
40612;BME280;26317;44.894;20.286;2023-02-28T06:55:06;101830.16;;;2.72;100.00
40612;BME280;26317;44.894;20.286;2023-02-28T06:57:45;101832.44;;;2.75;100.00
40612;BME280;26317;44.894;20.286;2023-02-28T07:00:23;101828.84;;;2.83;100.00
40612;BME280;26317;44.894;20.286;2023-02-28T07:03:10;101834.78;;;2.85;100.00
40612;BME280;26317;44.894;20.286;2023-02-28T07:05:46;101832.78;;;2.87;100.00
40612;BME280;26317;44.894;20.286;2023-02-28T07:08:40;101836.25;;;2.88;100.00
40612;BME280;26317;44.894;20.286;2023-02-28T07:11:16;101819.97;;;2.91;100.00
40612;BME280;26317;44.894;20.286;2023-02-28T07:13:58;101811.94;;;2.84;100.00
40612;BME280;26317;44.894;20.286;2023-02-28T07:16:34;101797.41;;;2.80;100.00
40612;BME280;26317;44.894;20.286;2023-02-28T07:19:14;101831.06;;;3.01;100.00
40612;BME280;26317;44.894;20.286;2023-02-28T07:21:54;101826.28;;;3.11;100.00
40612;BME280;26317;44.894;20.286;2023-02-28T07:24:33;101826.28;;;3.11;100.00
40612;BME280;26317;44.894;20.286;2023-02-28T07:27:21;101817.06;;;3.07;100.00
40612;BME280;26317;44.894;20.286;2023-02-28T07:30:09;101821.47;;;3.00;100.00
40612;BME280;26317;44.894;20.286;2023-02-28T07:32:52;101817.31;;;2.91;100.00
40612;BME280;26317;44.894;20.286;2023-02-28T07:35:31;101822.31;;;3.00;100.00
40612;BME280;26317;44.894;20.286;2023-02-28T07:38:14;101811.09;;;3.05;100.00
40612;BME280;26317;44.894;20.286;2023-02-28T07:41:03;101816.88;;;3.08;100.00
40612;BME280;26317;44.894;20.286;2023-02-28T07:43:49;101793.28;;;2.92;100.00
40612;BME280;26317;44.894;20.286;2023-02-28T07:46:33;101820.00;;;2.97;100.00
40612;BME280;26317;44.894;20.286;2023-02-28T07:49:09;101817.22;;;2.84;100.00
40612;BME280;26317;44.894;20.286;2023-02-28T07:51:51;101827.13;;;2.97;100.00
40612;BME280;26317;44.894;20.286;2023-02-28T07:54:25;101827.78;;;2.99;100.00
40612;BME280;26317;44.894;20.286;2023-02-28T07:57:26;101830.19;;;2.94;100.00
40612;BME280;26317;44.894;20.286;2023-02-28T08:00:23;101839.13;;;2.93;100.00
40612;BME280;26317;44.894;20.286;2023-02-28T08:03:05;101837.50;;;2.92;100.00
40612;BME280;26317;44.894;20.286;2023-02-28T08:05:47;101843.25;;;2.95;100.00
40612;BME280;26317;44.894;20.286;2023-02-28T08:08:20;101841.28;;;3.04;100.00
40612;BME280;26317;44.894;20.286;2023-02-28T08:11:04;101840.78;;;3.15;100.00
40612;BME280;26317;44.894;20.286;2023-02-28T08:13:51;101828.88;;;3.04;100.00
40612;BME280;26317;44.894;20.286;2023-02-28T08:16:24;101840.03;;;3.21;100.00
40612;BME280;26317;44.894;20.286;2023-02-28T08:19:03;101835.91;;;3.18;100.00
40612;BME280;26317;44.894;20.286;2023-02-28T08:21:35;101836.34;;;3.22;100.00
40612;BME280;26317;44.894;20.286;2023-02-28T08:24:10;101825.31;;;3.18;100.00
40612;BME280;26317;44.894;20.286;2023-02-28T08:26:53;101794.28;;;3.12;100.00
40612;BME280;26317;44.894;20.286;2023-02-28T08:29:32;101835.66;;;3.35;100.00
40612;BME280;26317;44.894;20.286;2023-02-28T08:32:16;101836.91;;;3.39;100.00
40612;BME280;26317;44.894;20.286;2023-02-28T08:35:14;101837.03;;;3.31;100.00
40612;BME280;26317;44.894;20.286;2023-02-28T08:37:54;101834.47;;;3.37;100.00
40612;BME280;26317;44.894;20.286;2023-02-28T08:40:33;101832.06;;;3.42;100.00
40612;BME280;26317;44.894;20.286;2023-02-28T08:43:09;101818.03;;;3.27;100.00
40612;BME280;26317;44.894;20.286;2023-02-28T08:45:51;101837.16;;;3.44;100.00
40612;BME280;26317;44.894;20.286;2023-02-28T08:48:37;101831.56;;;3.32;100.00
40612;BME280;26317;44.894;20.286;2023-02-28T08:51:20;101835.41;;;3.30;100.00
40612;BME280;26317;44.894;20.286;2023-02-28T08:53:59;101830.69;;;3.25;100.00
40612;BME280;26317;44.894;20.286;2023-02-28T08:56:37;101828.03;;;3.25;100.00
40612;BME280;26317;44.894;20.286;2023-02-28T08:59:14;101828.59;;;3.20;100.00
40612;BME280;26317;44.894;20.286;2023-02-28T09:01:45;101817.09;;;3.13;100.00
40612;BME280;26317;44.894;20.286;2023-02-28T09:04:31;101835.09;;;3.18;100.00
40612;BME280;26317;44.894;20.286;2023-02-28T09:07:13;101820.00;;;3.18;100.00
40612;BME280;26317;44.894;20.286;2023-02-28T09:09:49;101829.97;;;3.38;100.00
40612;BME280;26317;44.894;20.286;2023-02-28T09:12:34;101830.66;;;3.46;100.00
40612;BME280;26317;44.894;20.286;2023-02-28T09:15:11;101833.69;;;3.43;100.00
40612;BME280;26317;44.894;20.286;2023-02-28T09:17:50;101827.56;;;3.43;100.00
40612;BME280;26317;44.894;20.286;2023-02-28T09:20:34;101829.69;;;3.54;100.00
40612;BME280;26317;44.894;20.286;2023-02-28T09:23:27;101831.38;;;3.61;98.85
40612;BME280;26317;44.894;20.286;2023-02-28T09:26:04;101835.53;;;3.70;99.35
40612;BME280;26317;44.894;20.286;2023-02-28T09:28:41;101832.34;;;3.82;100.00
40612;BME280;26317;44.894;20.286;2023-02-28T09:31:24;101837.72;;;3.88;99.96
40612;BME280;26317;44.894;20.286;2023-02-28T09:34:05;101850.38;;;3.93;99.85
40612;BME280;26317;44.894;20.286;2023-02-28T09:36:48;101847.56;;;4.01;99.15
40612;BME280;26317;44.894;20.286;2023-02-28T09:39:29;101849.88;;;4.10;99.24
40612;BME280;26317;44.894;20.286;2023-02-28T09:44:53;101841.16;;;4.23;98.10
40612;BME280;26317;44.894;20.286;2023-02-28T09:47:30;101850.19;;;4.29;96.96
40612;BME280;26317;44.894;20.286;2023-02-28T09:50:17;101840.91;;;4.18;96.95
40612;BME280;26317;44.894;20.286;2023-02-28T09:52:56;101852.63;;;4.30;97.52
40612;BME280;26317;44.894;20.286;2023-02-28T09:55:47;101841.97;;;4.24;96.45
40612;BME280;26317;44.894;20.286;2023-02-28T09:58:30;101812.28;;;4.07;96.78
40612;BME280;26317;44.894;20.286;2023-02-28T10:01:10;101836.31;;;4.33;97.16
40612;BME280;26317;44.894;20.286;2023-02-28T10:03:51;101842.47;;;4.40;96.77
40612;BME280;26317;44.894;20.286;2023-02-28T10:06:38;101836.97;;;4.42;97.04
40612;BME280;26317;44.894;20.286;2023-02-28T10:09:13;101837.97;;;4.41;96.50
40612;BME280;26317;44.894;20.286;2023-02-28T10:12:04;101822.78;;;4.28;96.08
40612;BME280;26317;44.894;20.286;2023-02-28T10:14:49;101835.88;;;4.30;96.33
40612;BME280;26317;44.894;20.286;2023-02-28T10:17:35;101840.16;;;4.31;94.43
40612;BME280;26317;44.894;20.286;2023-02-28T10:23:22;101839.97;;;4.26;94.85
40612;BME280;26317;44.894;20.286;2023-02-28T10:26:09;101839.97;;;4.32;95.33
40612;BME280;26317;44.894;20.286;2023-02-28T10:28:53;101841.38;;;4.22;95.50
40612;BME280;26317;44.894;20.286;2023-02-28T10:31:34;101845.63;;;4.16;95.86
40612;BME280;26317;44.894;20.286;2023-02-28T10:34:19;101828.75;;;3.96;95.44
40612;BME280;26317;44.894;20.286;2023-02-28T10:36:54;101838.97;;;3.99;97.03
40612;BME280;26317;44.894;20.286;2023-02-28T10:39:42;101837.81;;;4.08;96.88
40612;BME280;26317;44.894;20.286;2023-02-28T10:42:23;101842.53;;;4.12;97.24
40612;BME280;26317;44.894;20.286;2023-02-28T10:45:16;101849.28;;;4.15;97.65
40612;BME280;26317;44.894;20.286;2023-02-28T10:48:10;101842.78;;;4.24;97.45
40612;BME280;26317;44.894;20.286;2023-02-28T10:51:04;101837.13;;;4.34;96.22
40612;BME280;26317;44.894;20.286;2023-02-28T10:53:53;101837.94;;;4.34;96.44
40612;BME280;26317;44.894;20.286;2023-02-28T10:56:35;101831.84;;;4.40;95.29
40612;BME280;26317;44.894;20.286;2023-02-28T10:59:28;101821.44;;;4.45;96.54
40612;BME280;26317;44.894;20.286;2023-02-28T11:02:31;101817.56;;;4.48;96.53
40612;BME280;26317;44.894;20.286;2023-02-28T11:05:25;101808.38;;;4.50;96.51
40612;BME280;26317;44.894;20.286;2023-02-28T11:08:04;101806.38;;;4.59;96.10
40612;BME280;26317;44.894;20.286;2023-02-28T11:10:47;101806.16;;;4.60;94.57
40612;BME280;26317;44.894;20.286;2023-02-28T11:13:31;101804.94;;;4.63;95.40
40612;BME280;26317;44.894;20.286;2023-02-28T11:16:17;101800.19;;;4.45;94.69
40612;BME280;26317;44.894;20.286;2023-02-28T11:19:02;101810.19;;;4.43;95.19
40612;BME280;26317;44.894;20.286;2023-02-28T11:21:49;101799.38;;;4.51;95.79
40612;BME280;26317;44.894;20.286;2023-02-28T11:24:26;101805.16;;;4.61;96.74
40612;BME280;26317;44.894;20.286;2023-02-28T11:27:03;101806.19;;;4.67;97.40
40612;BME280;26317;44.894;20.286;2023-02-28T11:29:58;101806.19;;;4.74;96.08
40612;BME280;26317;44.894;20.286;2023-02-28T11:32:36;101804.78;;;4.78;96.98
40612;BME280;26317;44.894;20.286;2023-02-28T11:35:31;101809.91;;;4.86;97.25
40612;BME280;26317;44.894;20.286;2023-02-28T11:38:10;101797.25;;;4.88;97.95
40612;BME280;26317;44.894;20.286;2023-02-28T11:40:54;101800.53;;;4.96;97.57
40612;BME280;26317;44.894;20.286;2023-02-28T11:43:49;101800.72;;;4.95;95.18
40612;BME280;26317;44.894;20.286;2023-02-28T11:46:35;101800.09;;;4.93;95.65
40612;BME280;26317;44.894;20.286;2023-02-28T11:49:28;101804.59;;;4.99;96.01
40612;BME280;26317;44.894;20.286;2023-02-28T11:52:29;101800.94;;;5.00;95.80
40612;BME280;26317;44.894;20.286;2023-02-28T11:55:26;101806.66;;;5.03;94.53
40612;BME280;26317;44.894;20.286;2023-02-28T11:58:20;101806.84;;;4.95;94.55
40612;BME280;26317;44.894;20.286;2023-02-28T12:01:18;101795.59;;;4.93;94.10
40612;BME280;26317;44.894;20.286;2023-02-28T12:04:08;101803.78;;;4.92;93.80
40612;BME280;26317;44.894;20.286;2023-02-28T12:06:53;101815.63;;;4.89;94.86
40612;BME280;26317;44.894;20.286;2023-02-28T12:10:09;101804.81;;;4.91;94.38
40612;BME280;26317;44.894;20.286;2023-02-28T12:13:20;101799.91;;;4.88;94.63
40612;BME280;26317;44.894;20.286;2023-02-28T12:16:26;101798.66;;;4.84;94.20
40612;BME280;26317;44.894;20.286;2023-02-28T12:19:09;101795.59;;;4.87;94.64
40612;BME280;26317;44.894;20.286;2023-02-28T12:22:12;101799.25;;;4.86;95.39
40612;BME280;26317;44.894;20.286;2023-02-28T12:31:42;101800.09;;;4.93;96.19
40612;BME280;26317;44.894;20.286;2023-02-28T12:34:31;101800.09;;;4.86;95.98
40612;BME280;26317;44.894;20.286;2023-02-28T12:37:17;101798.47;;;4.92;95.71
40612;BME280;26317;44.894;20.286;2023-02-28T12:39:57;101796.03;;;5.03;94.75
40612;BME280;26317;44.894;20.286;2023-02-28T12:42:48;101793.34;;;4.97;94.54
40612;BME280;26317;44.894;20.286;2023-02-28T12:45:35;101789.88;;;4.83;92.80
40612;BME280;26317;44.894;20.286;2023-02-28T12:48:24;101765.09;;;4.76;94.29
40612;BME280;26317;44.894;20.286;2023-02-28T12:51:01;101780.66;;;4.86;94.89
40612;BME280;26317;44.894;20.286;2023-02-28T12:54:01;101775.16;;;4.87;94.89
40612;BME280;26317;44.894;20.286;2023-02-28T12:57:02;101779.25;;;4.96;95.39
40612;BME280;26317;44.894;20.286;2023-02-28T12:59:49;101781.47;;;4.93;95.67
40612;BME280;26317;44.894;20.286;2023-02-28T13:02:45;101782.53;;;4.98;96.39
40612;BME280;26317;44.894;20.286;2023-02-28T13:11:39;101780.25;;;4.89;94.35
40612;BME280;26317;44.894;20.286;2023-02-28T13:14:23;101776.16;;;4.80;94.98
40612;BME280;26317;44.894;20.286;2023-02-28T13:17:14;101774.72;;;4.77;96.40
40612;BME280;26317;44.894;20.286;2023-02-28T13:19:59;101746.50;;;4.70;97.40
40612;BME280;26317;44.894;20.286;2023-02-28T13:22:47;101775.31;;;4.73;97.54
40612;BME280;26317;44.894;20.286;2023-02-28T13:25:53;101770.19;;;4.64;96.21
40612;BME280;26317;44.894;20.286;2023-02-28T13:28:59;101773.06;;;4.70;96.56
40612;BME280;26317;44.894;20.286;2023-02-28T13:35:20;101772.63;;;4.53;97.27
40612;BME280;26317;44.894;20.286;2023-02-28T13:44:10;101769.38;;;4.64;97.46
40612;BME280;26317;44.894;20.286;2023-02-28T13:50:23;101777.78;;;4.81;99.18
40612;BME280;26317;44.894;20.286;2023-02-28T13:53:37;101782.91;;;4.89;98.98
40612;BME280;26317;44.894;20.286;2023-02-28T13:56:43;101758.16;;;4.82;98.38
40612;BME280;26317;44.894;20.286;2023-02-28T13:59:31;101779.22;;;4.90;97.18
40612;BME280;26317;44.894;20.286;2023-02-28T14:02:25;101752.00;;;4.61;97.55
40612;BME280;26317;44.894;20.286;2023-02-28T14:05:22;101776.94;;;4.60;98.91
40612;BME280;26317;44.894;20.286;2023-02-28T14:08:10;101777.16;;;4.66;99.44
40612;BME280;26317;44.894;20.286;2023-02-28T14:10:50;101775.09;;;4.61;100.00
40612;BME280;26317;44.894;20.286;2023-02-28T14:13:46;101764.09;;;4.71;100.00
40612;BME280;26317;44.894;20.286;2023-02-28T14:16:23;101769.81;;;4.81;100.00
40612;BME280;26317;44.894;20.286;2023-02-28T14:19:01;101755.09;;;4.78;100.00
40612;BME280;26317;44.894;20.286;2023-02-28T14:21:58;101759.59;;;4.84;100.00
40612;BME280;26317;44.894;20.286;2023-02-28T14:25:04;101744.47;;;4.78;100.00
40612;BME280;26317;44.894;20.286;2023-02-28T14:28:18;101756.13;;;4.90;100.00
40612;BME280;26317;44.894;20.286;2023-02-28T14:31:09;101760.44;;;4.98;100.00
40612;BME280;26317;44.894;20.286;2023-02-28T14:37:13;101761.44;;;4.97;100.00
40612;BME280;26317;44.894;20.286;2023-02-28T14:39:53;101752.25;;;4.93;100.00
40612;BME280;26317;44.894;20.286;2023-02-28T14:42:31;101761.25;;;4.98;100.00
40612;BME280;26317;44.894;20.286;2023-02-28T14:45:17;101762.47;;;5.02;100.00
40612;BME280;26317;44.894;20.286;2023-02-28T14:48:01;101751.44;;;4.99;100.00
40612;BME280;26317;44.894;20.286;2023-02-28T14:50:39;101743.66;;;4.91;100.00
40612;BME280;26317;44.894;20.286;2023-02-28T14:53:22;101754.69;;;4.94;100.00
40612;BME280;26317;44.894;20.286;2023-02-28T14:56:21;101760.84;;;4.95;100.00
40612;BME280;26317;44.894;20.286;2023-02-28T14:58:58;101758.00;;;4.96;100.00